Time;durP1;ratioP1;P1;durP2;ratioP2;P2;SDS_P1;SDS_P2;PMS_P1;PMS_P2;Temp;Humidity;BMP_temperature;BMP_pressure;BME280_temperature;BME280_humidity;BME280_pressure;Samples;Min_cycle;Max_cycle;Signal;HPM_P1;HPM_P2
2022/03/13 00:00:47;;;;;;;20.05;12.52;;;6.30;76.40;;;;;;5066411;28;20041;-67
2022/03/13 00:03:13;;;;;;;;;;;6.20;76.80;;;;;;5057526;28;20075;-67
2022/03/13 00:05:41;;;;;;;22.80;11.80;;;6.10;77.10;;;;;;5052449;28;19992;-66
2022/03/13 00:08:23;;;;;;;22.10;12.07;;;5.90;76.70;;;;;;5054404;28;20045;-67
2022/03/13 00:10:56;;;;;;;24.13;12.52;;;5.90;77.70;;;;;;5061497;28;20040;-66
2022/03/13 00:13:30;;;;;;;21.95;12.75;;;5.80;77.50;;;;;;5055147;28;20199;-67
2022/03/13 00:15:58;;;;;;;22.48;13.23;;;5.80;77.40;;;;;;5032499;28;20055;-67
2022/03/13 00:18:23;;;;;;;25.42;13.52;;;5.70;77.60;;;;;;5038026;28;20044;-67
2022/03/13 00:20:50;;;;;;;21.30;13.13;;;5.60;77.70;;;;;;5048979;28;20041;-67
2022/03/13 00:23:15;;;;;;;21.63;12.07;;;5.60;78.00;;;;;;5055618;28;20383;-67
2022/03/13 00:25:42;;;;;;;24.20;13.23;;;5.50;78.40;;;;;;5050958;28;20037;-67
2022/03/13 00:28:08;;;;;;;23.63;12.98;;;5.40;78.70;;;;;;5055884;28;20362;-67
2022/03/13 00:30:35;;;;;;;22.58;13.45;;;5.30;79.20;;;;;;5064923;28;20055;-67
2022/03/13 00:33:01;;;;;;;30.55;13.55;;;5.20;79.50;;;;;;5052588;28;20126;-67
2022/03/13 00:35:28;;;;;;;24.33;13.25;;;5.10;79.70;;;;;;5034748;28;20132;-67
2022/03/13 00:37:55;;;;;;;22.73;13.27;;;5.10;80.70;;;;;;5051894;28;20044;-67
2022/03/13 00:40:21;;;;;;;25.20;13.50;;;5.10;80.20;;;;;;5051873;28;20040;-67
2022/03/13 00:42:48;;;;;;;23.02;13.13;;;5.00;80.50;;;;;;5051967;28;20116;-67
2022/03/13 00:45:13;;;;;;;24.80;13.65;;;4.90;80.90;;;;;;5055155;28;20049;-66
2022/03/13 00:47:39;;;;;;;23.38;13.55;;;4.90;81.10;;;;;;5061480;28;20044;-67
2022/03/13 00:50:06;;;;;;;24.83;14.07;;;5.00;81.50;;;;;;5050170;28;20106;-67
2022/03/13 00:52:31;;;;;;;26.85;13.05;;;5.00;81.30;;;;;;5046619;28;20091;-67
2022/03/13 00:54:57;;;;;;;25.38;13.43;;;5.00;81.40;;;;;;5051440;28;20062;-67
2022/03/13 00:57:22;;;;;;;21.92;13.32;;;5.00;81.30;;;;;;5055237;28;20037;-66
2022/03/13 00:59:48;;;;;;;23.55;13.32;;;5.00;81.60;;;;;;5049290;28;20087;-66
2022/03/13 01:02:14;;;;;;;26.10;13.63;;;5.10;81.90;;;;;;5051144;28;20526;-67
2022/03/13 01:04:40;;;;;;;24.67;13.27;;;5.10;81.70;;;;;;5057550;28;20051;-67
2022/03/13 01:07:06;;;;;;;23.55;13.35;;;5.10;81.90;;;;;;5052049;28;20728;-67
2022/03/13 01:09:32;;;;;;;27.02;15.15;;;5.10;81.90;;;;;;5050351;28;20037;-67
2022/03/13 01:11:57;;;;;;;26.77;13.50;;;5.00;82.40;;;;;;5059089;28;20080;-67
2022/03/13 01:14:23;;;;;;;24.98;13.43;;;5.00;82.50;;;;;;5064305;28;20083;-67
2022/03/13 01:17:00;;;;;;;23.27;13.13;;;5.00;82.60;;;;;;5034590;28;20064;-66
2022/03/13 01:19:26;;;;;;;21.60;13.35;;;5.10;83.10;;;;;;5061794;28;20173;-67
2022/03/13 01:21:51;;;;;;;24.42;13.75;;;5.10;82.70;;;;;;5035031;28;20489;-67
2022/03/13 01:24:19;;;;;;;31.23;14.63;;;5.10;82.50;;;;;;5054261;28;20442;-68
2022/03/13 01:26:52;;;;;;;24.48;14.52;;;5.10;83.10;;;;;;5045152;28;20502;-67
2022/03/13 01:29:17;;;;;;;27.90;14.50;;;5.10;83.00;;;;;;5043585;28;20066;-69
2022/03/13 01:31:48;;;;;;;25.70;14.27;;;5.10;83.10;;;;;;5029142;28;20070;-67
2022/03/13 01:34:41;;;;;;;26.92;14.45;;;5.10;82.90;;;;;;5057227;28;20123;-67
2022/03/13 01:37:15;;;;;;;27.50;14.75;;;5.10;83.50;;;;;;5042419;28;20391;-67
2022/03/13 01:39:42;;;;;;;27.45;14.60;;;5.10;83.20;;;;;;5048206;28;20041;-67
2022/03/13 01:42:08;;;;;;;28.02;14.93;;;5.10;83.30;;;;;;5036941;28;20044;-67
2022/03/13 01:44:34;;;;;;;29.00;14.60;;;5.10;83.50;;;;;;5047396;28;20041;-67
2022/03/13 01:47:01;;;;;;;25.15;14.38;;;5.10;84.10;;;;;;5046185;28;20138;-67
2022/03/13 01:49:27;;;;;;;28.60;14.60;;;5.20;84.10;;;;;;5047171;28;20037;-66
2022/03/13 01:51:53;;;;;;;26.73;14.35;;;5.20;84.10;;;;;;5031845;28;20102;-67
2022/03/13 01:54:18;;;;;;;24.73;14.32;;;5.20;83.90;;;;;;5046464;28;20369;-67
2022/03/13 01:56:44;;;;;;;25.85;14.07;;;5.30;84.00;;;;;;5060973;28;20032;-67
2022/03/13 01:59:14;;;;;;;25.35;14.32;;;5.30;84.70;;;;;;5054999;28;20041;-67
2022/03/13 02:01:40;;;;;;;25.58;14.48;;;5.40;83.90;;;;;;5052788;28;20032;-67
2022/03/13 02:04:06;;;;;;;24.27;14.40;;;5.40;84.10;;;;;;5046656;28;20464;-67
2022/03/13 02:06:32;;;;;;;25.13;14.60;;;5.50;83.80;;;;;;5035263;28;20036;-66
2022/03/13 02:08:59;;;;;;;25.65;14.70;;;5.60;83.80;;;;;;5048353;28;20087;-67
2022/03/13 02:11:36;;;;;;;27.50;14.95;;;5.70;83.70;;;;;;5051707;28;20068;-65
2022/03/13 02:14:03;;;;;;;26.95;14.65;;;5.70;83.50;;;;;;5057888;28;20067;-67
2022/03/13 02:16:29;;;;;;;28.85;15.20;;;5.80;83.70;;;;;;5055041;28;20045;-65
2022/03/13 02:18:56;;;;;;;31.45;14.05;;;5.90;83.10;;;;;;5058456;28;20109;-65
2022/03/13 02:21:28;;;;;;;31.85;13.88;;;5.90;83.00;;;;;;5057174;28;20574;-67
2022/03/13 02:24:01;;;;;;;27.25;14.85;;;6.00;83.10;;;;;;5045114;28;20119;-67
2022/03/13 02:26:26;;;;;;;29.38;15.23;;;6.00;83.20;;;;;;5058917;28;20453;-65
2022/03/13 02:28:54;;;;;;;26.85;15.38;;;6.00;82.60;;;;;;5051592;28;20152;-67
2022/03/13 02:31:27;;;;;;;25.55;15.05;;;6.00;82.70;;;;;;5060602;28;20414;-67
2022/03/13 02:33:53;;;;;;;26.45;14.70;;;6.00;82.80;;;;;;5052547;28;20037;-67
2022/03/13 02:36:29;;;;;;;26.10;14.77;;;6.00;82.70;;;;;;5054715;28;20150;-65
2022/03/13 02:38:54;;;;;;;27.75;15.35;;;6.00;83.50;;;;;;5049733;28;20435;-67
2022/03/13 02:41:20;;;;;;;27.17;14.63;;;6.00;82.40;;;;;;5047695;28;20036;-67
2022/03/13 02:43:45;;;;;;;24.15;14.73;;;6.00;82.50;;;;;;5059908;28;20039;-67
2022/03/13 02:46:20;;;;;;;26.40;14.05;;;6.00;82.60;;;;;;5046727;28;20041;-66
2022/03/13 02:48:47;;;;;;;27.48;14.80;;;5.90;83.00;;;;;;5053964;28;20365;-67
2022/03/13 02:51:12;;;;;;;26.23;15.60;;;5.90;82.50;;;;;;5060637;28;20040;-66
2022/03/13 02:53:39;;;;;;;25.98;13.15;;;5.90;83.30;;;;;;5048889;28;20052;-66
2022/03/13 02:56:05;;;;;;;25.10;13.75;;;5.80;82.50;;;;;;5065967;28;20052;-66
2022/03/13 02:58:32;;;;;;;23.77;13.43;;;5.80;82.40;;;;;;5065777;28;20143;-66
2022/03/13 03:00:58;;;;;;;25.73;13.98;;;5.90;82.10;;;;;;5067970;28;20345;-66
2022/03/13 03:03:26;;;;;;;24.42;13.50;;;5.90;81.70;;;;;;5055176;28;20033;-65
2022/03/13 03:05:53;;;;;;;27.48;14.38;;;5.90;81.70;;;;;;5051710;28;20480;-65
2022/03/13 03:08:19;;;;;;;23.75;14.00;;;5.90;81.70;;;;;;5052859;28;20680;-65
2022/03/13 03:10:45;;;;;;;25.30;15.05;;;5.90;81.40;;;;;;5059877;28;20037;-66
2022/03/13 03:13:13;;;;;;;23.27;13.48;;;5.80;81.40;;;;;;5044998;28;20064;-66
2022/03/13 03:15:39;;;;;;;26.08;14.93;;;5.80;81.30;;;;;;5045385;28;20036;-65
2022/03/13 03:18:06;;;;;;;23.50;13.68;;;5.80;81.20;;;;;;5048995;28;20049;-66
2022/03/13 03:20:33;;;;;;;24.98;14.27;;;5.80;81.10;;;;;;5052352;28;20060;-65
2022/03/13 03:22:58;;;;;;;25.27;14.23;;;5.80;81.20;;;;;;5048376;28;20033;-66
2022/03/13 03:25:26;;;;;;;25.65;13.73;;;5.70;81.10;;;;;;5058256;28;20362;-65
2022/03/13 03:27:52;;;;;;;24.13;14.40;;;5.70;81.50;;;;;;5052251;28;20033;-64
2022/03/13 03:30:24;;;;;;;26.52;14.75;;;5.60;82.20;;;;;;5050627;28;20052;-66
2022/03/13 03:32:50;;;;;;;25.65;14.40;;;5.60;81.80;;;;;;5054438;28;20047;-65
2022/03/13 03:35:19;;;;;;;23.88;13.82;;;5.60;81.80;;;;;;5052100;28;20128;-66
2022/03/13 03:37:48;;;;;;;22.50;13.50;;;5.50;81.80;;;;;;5039334;28;22071;-65
2022/03/13 03:40:14;;;;;;;28.83;14.82;;;5.50;82.00;;;;;;5050368;28;20055;-64
2022/03/13 03:42:41;;;;;;;25.75;14.02;;;5.40;82.00;;;;;;5051587;28;20111;-66
2022/03/13 03:45:07;;;;;;;25.58;14.70;;;5.50;82.20;;;;;;5062718;28;20070;-65
2022/03/13 03:47:33;;;;;;;25.35;14.25;;;5.30;82.40;;;;;;5057010;28;20395;-64
2022/03/13 03:49:59;;;;;;;23.98;14.60;;;5.30;82.30;;;;;;5052724;28;20123;-66
2022/03/13 03:52:24;;;;;;;26.65;15.05;;;5.20;82.50;;;;;;5059914;28;20496;-66
2022/03/13 03:54:51;;;;;;;23.38;13.45;;;5.10;82.60;;;;;;5053775;28;20408;-66
2022/03/13 03:57:17;;;;;;;26.45;13.80;;;5.10;82.90;;;;;;5047421;28;20037;-65
2022/03/13 03:59:43;;;;;;;26.23;14.35;;;5.00;83.10;;;;;;5063244;28;20025;-65
2022/03/13 04:02:09;;;;;;;26.65;13.13;;;5.00;83.20;;;;;;5060856;28;20045;-65
2022/03/13 04:04:34;;;;;;;24.65;13.52;;;5.00;82.90;;;;;;5060283;28;20060;-65
2022/03/13 04:07:00;;;;;;;26.73;14.35;;;5.00;82.80;;;;;;5046901;28;20136;-66
2022/03/13 04:09:25;;;;;;;23.48;13.35;;;5.00;82.50;;;;;;5054823;28;20136;-66
2022/03/13 04:11:52;;;;;;;23.17;13.10;;;4.90;82.40;;;;;;5059538;28;20132;-65
2022/03/13 04:14:20;;;;;;;27.85;13.80;;;4.90;82.40;;;;;;5062946;28;20411;-66
2022/03/13 04:16:46;;;;;;;23.02;13.63;;;4.80;82.50;;;;;;5060474;28;20430;-66
2022/03/13 04:19:11;;;;;;;24.80;12.82;;;4.80;82.40;;;;;;5057388;28;20057;-66
2022/03/13 04:21:41;;;;;;;24.13;13.40;;;4.80;82.40;;;;;;5057488;28;20043;-67
2022/03/13 04:24:08;;;;;;;22.50;13.10;;;4.70;82.40;;;;;;5059971;28;20041;-66
2022/03/13 04:26:33;;;;;;;24.95;13.32;;;4.60;82.60;;;;;;5063876;28;20206;-67
2022/03/13 04:28:59;;;;;;;26.92;12.80;;;4.60;82.90;;;;;;5060583;28;20124;-67
2022/03/13 04:31:24;;;;;;;25.92;13.52;;;4.50;83.10;;;;;;5054799;28;20029;-67
2022/03/13 04:33:50;;;;;;;27.52;14.65;;;4.40;83.30;;;;;;5066365;28;20044;-66
2022/03/13 04:36:25;;;;;;;25.38;12.95;;;4.30;83.80;;;;;;5053904;28;20036;-66
2022/03/13 04:38:51;;;;;;;25.38;14.02;;;4.20;84.50;;;;;;5039362;28;20048;-65
2022/03/13 04:41:17;;;;;;;25.77;13.50;;;4.20;84.90;;;;;;5076586;28;20474;-66
2022/03/13 04:43:43;;;;;;;27.17;13.50;;;4.20;84.90;;;;;;5053210;28;20041;-66
2022/03/13 04:46:09;;;;;;;26.35;14.15;;;4.20;85.10;;;;;;5051396;28;21591;-66
2022/03/13 04:48:35;;;;;;;23.67;12.85;;;4.10;85.20;;;;;;5045456;28;20221;-66
2022/03/13 04:51:01;;;;;;;23.40;14.02;;;4.10;85.00;;;;;;5050212;28;20060;-66
2022/03/13 04:53:27;;;;;;;26.17;13.30;;;4.20;84.90;;;;;;5060734;28;20059;-67
2022/03/13 04:55:53;;;;;;;24.58;13.15;;;4.20;84.50;;;;;;5069919;28;20093;-66
2022/03/13 04:58:19;;;;;;;23.20;12.95;;;4.20;84.60;;;;;;5050358;28;20225;-66
2022/03/13 05:00:47;;;;;;;25.73;13.18;;;4.20;84.50;;;;;;5063495;28;20346;-66
2022/03/13 05:03:13;;;;;;;26.77;13.38;;;4.10;84.70;;;;;;5032218;28;20128;-67
2022/03/13 05:05:40;;;;;;;24.45;14.15;;;4.10;84.50;;;;;;5031326;28;20045;-67
2022/03/13 05:08:13;;;;;;;25.20;13.32;;;4.10;84.30;;;;;;5049944;28;20068;-65
2022/03/13 05:10:40;;;;;;;22.30;12.70;;;4.00;84.20;;;;;;5048403;28;22076;-67
2022/03/13 05:13:09;;;;;;;22.63;11.95;;;4.00;84.20;;;;;;5052284;28;20047;-67
2022/03/13 05:15:36;;;;;;;28.70;13.45;;;4.00;84.00;;;;;;5059550;28;20051;-66
2022/03/13 05:18:02;;;;;;;25.92;12.90;;;3.90;84.00;;;;;;5064780;28;20049;-67
2022/03/13 05:20:28;;;;;;;23.05;12.57;;;3.90;84.00;;;;;;5048712;28;20051;-68
2022/03/13 05:22:55;;;;;;;23.70;12.68;;;3.90;84.40;;;;;;5051073;28;20540;-66
2022/03/13 05:25:23;;;;;;;27.60;13.02;;;3.80;84.60;;;;;;5057527;28;20902;-67
2022/03/13 05:27:49;;;;;;;24.95;13.10;;;3.80;84.70;;;;;;5062442;28;20040;-67
2022/03/13 05:30:14;;;;;;;24.55;13.20;;;3.80;84.90;;;;;;5061599;28;20415;-67
2022/03/13 05:32:40;;;;;;;28.75;12.90;;;3.70;84.90;;;;;;5060727;28;20048;-67
2022/03/13 05:35:06;;;;;;;24.05;12.95;;;3.70;85.20;;;;;;5053078;28;20032;-67
2022/03/13 05:37:32;;;;;;;25.63;12.48;;;3.70;85.20;;;;;;5059354;28;20433;-66
2022/03/13 05:39:57;;;;;;;20.30;12.45;;;3.70;85.10;;;;;;5051732;28;20062;-67
2022/03/13 05:42:25;;;;;;;23.48;13.40;;;3.70;84.90;;;;;;5062048;28;20044;-67
2022/03/13 05:44:54;;;;;;;22.13;11.48;;;3.70;84.60;;;;;;5062941;28;20420;-66
2022/03/13 05:47:21;;;;;;;24.80;12.18;;;3.70;84.60;;;;;;5055279;28;20078;-67
2022/03/13 05:49:47;;;;;;;25.17;12.57;;;3.70;84.20;;;;;;5063920;28;20037;-66
2022/03/13 05:52:14;;;;;;;24.25;13.20;;;3.80;84.00;;;;;;5052938;28;20124;-67
2022/03/13 05:54:40;;;;;;;23.88;13.27;;;3.80;83.70;;;;;;5045542;28;20129;-67
2022/03/13 05:57:07;;;;;;;21.10;12.25;;;3.70;83.50;;;;;;5039700;28;20187;-67
2022/03/13 05:59:36;;;;;;;22.23;12.75;;;3.80;83.40;;;;;;5056284;28;20356;-67
2022/03/13 06:02:04;;;;;;;25.25;12.52;;;3.80;83.20;;;;;;5052842;28;20029;-67
2022/03/13 06:04:32;;;;;;;23.83;11.65;;;3.90;82.90;;;;;;5055633;28;20399;-67
2022/03/13 06:06:57;;;;;;;22.88;12.32;;;3.90;82.60;;;;;;5057386;28;20036;-67
2022/03/13 06:09:23;;;;;;;24.33;13.18;;;4.00;82.40;;;;;;5048718;28;20472;-66
2022/03/13 06:11:48;;;;;;;25.05;12.32;;;4.00;82.40;;;;;;5050395;28;20123;-67
2022/03/13 06:14:14;;;;;;;20.98;11.80;;;4.00;82.40;;;;;;5048821;28;20041;-67
2022/03/13 06:16:39;;;;;;;22.20;11.93;;;4.10;82.20;;;;;;5054324;28;20040;-67
2022/03/13 06:19:05;;;;;;;22.38;12.15;;;4.10;82.10;;;;;;5056928;28;20052;-67
2022/03/13 06:21:30;;;;;;;22.58;11.80;;;4.10;82.00;;;;;;5047476;28;20481;-67
2022/03/13 06:23:56;;;;;;;26.80;13.25;;;4.10;82.80;;;;;;5052056;28;20439;-66
2022/03/13 06:26:21;;;;;;;21.92;12.40;;;4.10;82.00;;;;;;5055424;28;20507;-67
2022/03/13 06:28:47;;;;;;;23.65;12.45;;;4.20;82.80;;;;;;5052853;28;20040;-67
2022/03/13 06:31:13;;;;;;;21.33;12.40;;;4.20;82.20;;;;;;5056961;28;20128;-68
2022/03/13 06:33:38;;;;;;;22.90;12.15;;;4.20;82.40;;;;;;5051892;28;20094;-67
2022/03/13 06:36:05;;;;;;;22.65;12.00;;;4.40;82.60;;;;;;5054683;28;20323;-68
2022/03/13 06:38:30;;;;;;;19.75;12.18;;;4.50;82.90;;;;;;5039141;28;20040;-68
2022/03/13 06:40:56;;;;;;;26.80;12.93;;;4.60;83.00;;;;;;5048873;28;20106;-68
2022/03/13 06:43:22;;;;;;;23.70;12.88;;;4.80;83.20;;;;;;5034862;28;20803;-68
2022/03/13 06:45:48;;;;;;;22.10;13.07;;;4.90;82.90;;;;;;5058297;28;20392;-68
2022/03/13 06:48:15;;;;;;;24.83;12.80;;;5.10;83.00;;;;;;5049654;28;20048;-67
2022/03/13 06:50:41;;;;;;;23.13;13.35;;;5.30;83.00;;;;;;5033916;28;20067;-68
2022/03/13 06:53:09;;;;;;;24.33;12.50;;;5.40;82.80;;;;;;5046141;28;20107;-68
2022/03/13 06:55:35;;;;;;;23.17;12.98;;;5.40;82.50;;;;;;5062148;28;20154;-68
2022/03/13 06:58:00;;;;;;;22.13;13.05;;;5.40;81.80;;;;;;5063994;28;20136;-68
2022/03/13 07:00:26;;;;;;;24.25;13.18;;;5.50;81.00;;;;;;5051324;28;20044;-66
2022/03/13 07:02:51;;;;;;;22.25;12.95;;;5.60;80.80;;;;;;5049595;28;20052;-67
2022/03/13 07:05:21;;;;;;;19.80;12.05;;;5.70;80.40;;;;;;5062427;28;20139;-67
2022/03/13 07:07:47;;;;;;;24.17;13.63;;;5.90;79.40;;;;;;5063846;28;20133;-67
2022/03/13 07:10:12;;;;;;;21.63;13.00;;;6.00;79.90;;;;;;5038605;28;20097;-68
2022/03/13 07:12:40;;;;;;;23.58;13.20;;;6.00;79.00;;;;;;5048542;28;20136;-66
2022/03/13 07:15:12;;;;;;;22.92;12.68;;;5.90;78.30;;;;;;5031425;28;20055;-65
2022/03/13 07:17:38;;;;;;;21.88;13.00;;;5.90;77.50;;;;;;5049120;28;20037;-66
2022/03/13 07:20:05;;;;;;;21.42;12.57;;;5.90;77.00;;;;;;5063185;28;20496;-67
2022/03/13 07:22:31;;;;;;;22.50;12.25;;;6.00;76.30;;;;;;5045617;28;20049;-68
2022/03/13 07:24:57;;;;;;;18.95;11.82;;;6.00;75.70;;;;;;5060480;28;20332;-66
2022/03/13 07:27:22;;;;;;;22.38;12.18;;;6.00;75.50;;;;;;5062842;28;20045;-67
2022/03/13 07:29:50;;;;;;;23.98;12.30;;;6.00;74.70;;;;;;5051794;28;20055;-66
2022/03/13 07:32:15;;;;;;;18.15;10.60;;;5.90;74.20;;;;;;5052311;28;20087;-68
2022/03/13 07:34:41;;;;;;;18.95;11.18;;;5.90;73.60;;;;;;5035392;28;20402;-67
2022/03/13 07:37:10;;;;;;;21.35;12.10;;;5.90;73.70;;;;;;5037277;28;20045;-69
2022/03/13 07:39:42;;;;;;;21.35;11.52;;;5.90;73.20;;;;;;5034496;28;20075;-67
2022/03/13 07:42:09;;;;;;;22.70;12.57;;;6.00;73.50;;;;;;5049243;28;20047;-67
2022/03/13 07:44:35;;;;;;;21.67;12.57;;;6.10;73.90;;;;;;5049998;28;20438;-67
2022/03/13 07:47:00;;;;;;;21.30;12.27;;;6.10;73.90;;;;;;5053081;28;20045;-66
2022/03/13 07:49:26;;;;;;;19.65;11.70;;;6.20;73.60;;;;;;5052748;28;20425;-67
2022/03/13 07:51:52;;;;;;;20.23;11.52;;;6.20;73.60;;;;;;5034673;28;20036;-67
2022/03/13 07:54:19;;;;;;;20.20;12.18;;;6.30;72.90;;;;;;5048230;28;20043;-67
2022/03/13 07:56:45;;;;;;;24.13;11.35;;;6.50;72.80;;;;;;5058745;28;20045;-67
2022/03/13 07:59:10;;;;;;;18.77;10.98;;;6.50;72.30;;;;;;5067724;28;20053;-68
2022/03/13 08:01:36;;;;;;;21.67;11.75;;;6.60;72.10;;;;;;5061544;28;20195;-68
2022/03/13 08:04:04;;;;;;;19.35;11.10;;;6.70;71.70;;;;;;5067775;28;20041;-66
2022/03/13 08:06:33;;;;;;;20.10;12.25;;;6.70;71.70;;;;;;5043757;28;20041;-67
2022/03/13 08:08:58;;;;;;;21.17;11.55;;;6.80;71.10;;;;;;5062129;28;20055;-66
2022/03/13 08:11:24;;;;;;;21.13;11.52;;;6.90;71.00;;;;;;5051362;28;20060;-66
2022/03/13 08:13:50;;;;;;;17.35;11.25;;;7.10;70.60;;;;;;5050131;28;20045;-66
2022/03/13 08:16:17;;;;;;;18.77;11.10;;;7.20;70.90;;;;;;5039702;28;20139;-67
2022/03/13 08:18:42;;;;;;;18.83;11.77;;;7.50;69.60;;;;;;5058031;28;20119;-67
2022/03/13 08:21:08;;;;;;;18.02;11.05;;;7.90;69.70;;;;;;5066498;28;20124;-67
2022/03/13 08:23:33;;;;;;;22.55;12.00;;;8.00;68.20;;;;;;5049038;28;20084;-66
2022/03/13 08:25:59;;;;;;;20.48;11.40;;;8.00;68.70;;;;;;5049403;28;20637;-66
2022/03/13 08:28:25;;;;;;;18.70;11.10;;;7.90;67.80;;;;;;5058038;28;20441;-66
2022/03/13 08:30:50;;;;;;;19.88;11.18;;;7.90;67.50;;;;;;5060940;28;20108;-66
2022/03/13 08:33:16;;;;;;;19.55;11.30;;;7.90;67.80;;;;;;5052247;28;20056;-66
2022/03/13 08:35:41;;;;;;;18.70;10.70;;;7.90;67.50;;;;;;5055675;28;20083;-66
2022/03/13 08:38:07;;;;;;;16.70;10.65;;;7.80;66.70;;;;;;5048899;28;20040;-65
2022/03/13 08:40:33;;;;;;;19.67;11.40;;;7.80;66.70;;;;;;5031346;28;20029;-65
2022/03/13 08:42:58;;;;;;;18.45;10.55;;;7.80;66.60;;;;;;5049916;28;20041;-68
2022/03/13 08:45:24;;;;;;;18.65;10.75;;;7.90;66.90;;;;;;5050070;28;20400;-66
2022/03/13 08:47:50;;;;;;;16.95;10.73;;;8.00;66.40;;;;;;5033161;28;20055;-67
2022/03/13 08:50:16;;;;;;;24.67;13.38;;;8.00;66.40;;;;;;5035674;28;20190;-67
2022/03/13 08:52:43;;;;;;;17.58;10.55;;;8.20;65.80;;;;;;5067048;28;20059;-66
2022/03/13 08:55:13;;;;;;;18.95;10.55;;;8.30;64.20;;;;;;5064527;28;20041;-67
2022/03/13 08:57:43;;;;;;;16.33;11.05;;;8.60;64.50;;;;;;5070101;28;20357;-67
2022/03/13 09:00:10;;;;;;;18.27;11.37;;;9.00;64.80;;;;;;5054558;28;20033;-65
2022/03/13 09:02:37;;;;;;;19.75;11.70;;;9.40;63.00;;;;;;5063135;28;20041;-64
2022/03/13 09:05:02;;;;;;;19.35;11.55;;;9.60;62.40;;;;;;5049739;28;20080;-66
2022/03/13 09:07:28;;;;;;;17.92;11.02;;;9.70;61.30;;;;;;5050169;28;20082;-66
2022/03/13 09:09:54;;;;;;;17.95;10.85;;;10.00;61.10;;;;;;5050775;28;20123;-67
2022/03/13 09:12:19;;;;;;;17.05;10.93;;;10.30;60.20;;;;;;5063101;28;20131;-67
2022/03/13 09:14:46;;;;;;;19.50;10.95;;;10.40;59.90;;;;;;5063615;28;20043;-67
2022/03/13 09:17:12;;;;;;;18.80;11.27;;;10.50;58.10;;;;;;5069071;28;20449;-67
2022/03/13 09:19:38;;;;;;;21.20;11.13;;;10.50;57.50;;;;;;5069312;28;20131;-64
2022/03/13 09:22:04;;;;;;;17.40;10.48;;;10.50;57.80;;;;;;5055315;28;20136;-65
2022/03/13 09:24:30;;;;;;;19.52;10.00;;;10.50;57.40;;;;;;5049115;28;20033;-66
2022/03/13 09:26:56;;;;;;;18.65;10.57;;;10.50;56.70;;;;;;5052744;28;20036;-66
2022/03/13 09:29:21;;;;;;;21.20;12.43;;;10.60;57.50;;;;;;5054726;28;20508;-67
2022/03/13 09:31:47;;;;;;;16.73;10.48;;;10.70;57.70;;;;;;5048965;28;20530;-68
2022/03/13 09:34:13;;;;;;;18.85;11.55;;;10.70;57.10;;;;;;5049087;28;20048;-66
2022/03/13 09:36:42;;;;;;;19.27;11.13;;;10.80;56.90;;;;;;5048807;28;20033;-65
2022/03/13 09:39:08;;;;;;;16.92;11.27;;;10.80;56.70;;;;;;5048369;28;20041;-64
2022/03/13 09:41:35;;;;;;;17.75;10.57;;;10.80;55.90;;;;;;5049327;28;20045;-67
2022/03/13 09:44:00;;;;;;;17.30;10.90;;;10.80;55.60;;;;;;5048930;28;20048;-66
2022/03/13 09:46:26;;;;;;;17.63;11.32;;;11.00;56.20;;;;;;5060346;28;20365;-66
2022/03/13 09:48:54;;;;;;;19.90;10.63;;;11.00;54.30;;;;;;5059851;28;20040;-66
2022/03/13 09:51:19;;;;;;;19.08;10.77;;;11.00;54.00;;;;;;5053164;28;20124;-67
2022/03/13 09:53:46;;;;;;;18.83;11.10;;;11.20;54.40;;;;;;5048867;28;20090;-66
2022/03/13 09:56:12;;;;;;;17.92;11.32;;;11.30;54.20;;;;;;5043297;28;20048;-65
2022/03/13 09:58:37;;;;;;;23.52;10.95;;;11.40;52.80;;;;;;5057443;28;20036;-66
2022/03/13 10:01:07;;;;;;;17.75;10.80;;;11.40;52.50;;;;;;5070609;28;20036;-67
2022/03/13 10:03:32;;;;;;;17.10;11.00;;;11.50;53.70;;;;;;5068408;28;20082;-65
2022/03/13 10:05:58;;;;;;;18.08;11.20;;;11.60;53.60;;;;;;5061132;28;20056;-66
2022/03/13 10:08:30;;;;;;;16.55;10.77;;;11.70;51.00;;;;;;5038043;28;20040;-67
2022/03/13 10:10:56;;;;;;;16.10;10.55;;;11.80;52.60;;;;;;5068701;28;20040;-65
2022/03/13 10:13:46;;;;;;;16.00;10.35;;;11.90;52.70;;;;;;5068747;28;20571;-66
2022/03/13 10:16:20;;;;;;;16.50;9.88;;;12.00;49.90;;;;;;5051059;28;20036;-66
2022/03/13 10:18:46;;;;;;;16.05;9.93;;;12.00;50.80;;;;;;5067969;28;20045;-66
2022/03/13 10:21:18;;;;;;;18.35;10.15;;;12.00;50.70;;;;;;5068877;28;20098;-68
2022/03/13 10:23:48;;;;;;;17.42;10.40;;;12.00;51.50;;;;;;5050307;28;20381;-67
2022/03/13 10:26:16;;;;;;;18.05;10.57;;;12.00;50.90;;;;;;5032104;28;20040;-67
2022/03/13 10:28:43;;;;;;;17.02;10.60;;;12.00;51.30;;;;;;5049118;28;20040;-65
2022/03/13 10:31:13;;;;;;;16.30;10.45;;;11.90;50.80;;;;;;5048805;28;20151;-65
2022/03/13 10:33:44;;;;;;;17.52;11.13;;;11.90;50.40;;;;;;5047916;28;20037;-66
2022/03/13 10:36:34;;;;;;;18.48;10.70;;;11.90;50.80;;;;;;5048598;28;20053;-65
2022/03/13 10:39:02;;;;;;;19.42;10.68;;;12.10;49.40;;;;;;5045106;28;20029;-66
2022/03/13 10:41:44;;;;;;;17.48;10.70;;;12.20;51.20;;;;;;5049257;28;20111;-66
2022/03/13 10:44:15;;;;;;;18.65;10.95;;;12.20;49.90;;;;;;5048986;28;20044;-66
2022/03/13 10:46:41;;;;;;;16.00;10.75;;;12.40;51.10;;;;;;5048953;28;20044;-66
2022/03/13 10:49:08;;;;;;;20.38;11.20;;;12.40;50.30;;;;;;5062435;28;20429;-65
2022/03/13 10:51:36;;;;;;;18.98;11.40;;;12.40;49.80;;;;;;5048422;28;20075;-67
2022/03/13 10:54:03;;;;;;;20.40;11.57;;;12.40;49.30;;;;;;5040115;28;20032;-67
2022/03/13 10:56:29;;;;;;;22.38;11.73;;;12.40;49.10;;;;;;5067575;28;20048;-66
2022/03/13 10:58:54;;;;;;;20.33;11.65;;;12.50;49.20;;;;;;5046136;28;20036;-66
2022/03/13 11:01:22;;;;;;;19.38;11.07;;;12.60;48.80;;;;;;5057245;28;20041;-66
2022/03/13 11:03:51;;;;;;;21.33;11.75;;;12.70;49.70;;;;;;5069759;28;20040;-66
2022/03/13 11:06:17;;;;;;;18.38;11.07;;;12.80;48.80;;;;;;5060513;28;20043;-67
2022/03/13 11:08:42;;;;;;;20.50;11.15;;;12.80;49.30;;;;;;5051382;28;20317;-66
2022/03/13 11:11:16;;;;;;;18.55;11.20;;;12.80;48.50;;;;;;5043548;28;20123;-67
2022/03/13 11:13:42;;;;;;;18.27;10.65;;;12.80;49.90;;;;;;5061343;28;20040;-66
2022/03/13 11:16:10;;;;;;;19.23;11.38;;;12.90;49.50;;;;;;5068552;28;20174;-66
2022/03/13 11:18:37;;;;;;;19.50;12.13;;;12.80;48.50;;;;;;5071221;28;20106;-67
2022/03/13 11:21:08;;;;;;;18.23;11.23;;;12.80;48.90;;;;;;5058479;28;20045;-66
2022/03/13 11:23:37;;;;;;;22.52;12.10;;;12.90;49.60;;;;;;5053411;28;20076;-66
2022/03/13 11:26:04;;;;;;;19.13;11.13;;;13.10;49.20;;;;;;5043543;28;20090;-67
2022/03/13 11:28:31;;;;;;;17.88;10.98;;;13.30;49.20;;;;;;5056570;28;20131;-66
2022/03/13 11:30:58;;;;;;;19.02;10.95;;;13.30;47.40;;;;;;5062816;28;20041;-65
2022/03/13 11:33:36;;;;;;;16.55;11.15;;;13.40;46.90;;;;;;5052795;28;20095;-65
2022/03/13 11:36:28;;;;;;;18.67;10.85;;;13.50;46.60;;;;;;5063269;28;20032;-66
2022/03/13 11:39:03;;;;;;;19.13;11.98;;;13.60;46.20;;;;;;5052552;28;20035;-66
2022/03/13 11:41:41;;;;;;;19.05;11.63;;;13.60;47.20;;;;;;5049705;28;20044;-67
2022/03/13 11:44:21;;;;;;;16.77;10.88;;;13.80;45.50;;;;;;5053358;28;20048;-68
2022/03/13 11:46:48;;;;;;;;;;;13.90;45.40;;;;;;5055258;28;20115;-66
2022/03/13 11:49:20;;;;;;;18.38;12.15;;;14.00;44.30;;;;;;5056799;28;20058;-65
2022/03/13 11:51:46;;;;;;;17.35;11.25;;;14.00;45.00;;;;;;5063722;28;20058;-66
2022/03/13 11:54:15;;;;;;;17.90;10.48;;;14.00;45.30;;;;;;5058305;28;20032;-67
2022/03/13 11:56:49;;;;;;;16.30;10.52;;;14.00;44.10;;;;;;5056646;28;20058;-65
2022/03/13 11:59:19;;;;;;;17.58;10.93;;;14.00;43.50;;;;;;5054746;28;20150;-66
2022/03/13 12:01:45;;;;;;;19.10;11.32;;;14.10;44.20;;;;;;5051346;28;20338;-68
2022/03/13 12:04:11;;;;;;;19.48;11.80;;;14.10;44.00;;;;;;5052778;28;20091;-70
2022/03/13 12:06:39;;;;;;;20.17;11.32;;;14.20;43.60;;;;;;5061062;28;20555;-67
2022/03/13 12:09:06;;;;;;;15.95;10.65;;;14.30;44.20;;;;;;5053499;28;20048;-66
2022/03/13 12:11:46;;;;;;;16.80;11.23;;;14.30;42.50;;;;;;5054661;28;20048;-67
2022/03/13 12:14:14;;;;;;;16.95;10.85;;;14.40;43.20;;;;;;5034233;28;20041;-67
2022/03/13 12:16:41;;;;;;;16.52;9.45;;;14.40;43.30;;;;;;5053485;28;20307;-66
2022/03/13 12:19:10;;;;;;;18.58;11.52;;;14.40;42.10;;;;;;5048587;28;20053;-66
2022/03/13 12:21:36;;;;;;;15.75;10.38;;;14.50;42.40;;;;;;5055208;28;20067;-67
2022/03/13 12:24:13;;;;;;;18.27;10.57;;;14.50;42.30;;;;;;5033250;28;20045;-67
2022/03/13 12:26:39;;;;;;;19.05;11.73;;;14.60;41.50;;;;;;5034051;28;20041;-65
2022/03/13 12:29:05;;;;;;;20.08;11.48;;;14.70;43.50;;;;;;5063347;28;20048;-66
2022/03/13 12:31:39;;;;;;;16.48;10.90;;;14.70;42.70;;;;;;5067684;28;20456;-66
2022/03/13 12:34:05;;;;;;;18.63;11.52;;;14.80;41.60;;;;;;5044489;28;20060;-67
2022/03/13 12:36:36;;;;;;;19.63;11.18;;;14.70;41.70;;;;;;5052633;28;20032;-67